createdAt,value
2023-04-05T00:00:54.590Z,100.00
2023-04-05T00:03:22.721Z,100.00
2023-04-05T00:05:50.382Z,100.00
2023-04-05T00:08:34.362Z,100.00
2023-04-05T00:11:01.509Z,100.00
2023-04-05T00:13:28.799Z,100.00
2023-04-05T00:15:58.496Z,100.00
2023-04-05T00:18:26.369Z,100.00
2023-04-05T00:20:54.208Z,100.00
2023-04-05T00:23:21.992Z,100.00
2023-04-05T00:25:50.189Z,100.00
2023-04-05T00:28:17.846Z,100.00
2023-04-05T00:30:45.186Z,100.00
2023-04-05T00:33:13.995Z,100.00
2023-04-05T00:35:41.514Z,100.00
2023-04-05T00:38:09.174Z,100.00
2023-04-05T00:40:37.637Z,100.00
2023-04-05T00:43:05.161Z,100.00
2023-04-05T00:45:32.824Z,100.00
2023-04-05T00:48:00.858Z,100.00
2023-04-05T00:50:32.065Z,100.00
2023-04-05T00:52:59.393Z,100.00
2023-04-05T00:55:27.873Z,100.00
2023-04-05T00:57:56.207Z,100.00
2023-04-05T01:00:23.743Z,100.00
2023-04-05T01:02:58.526Z,100.00
2023-04-05T01:05:35.110Z,100.00
2023-04-05T01:08:12.529Z,100.00
2023-04-05T01:10:44.933Z,100.00
2023-04-05T01:13:12.514Z,100.00
2023-04-05T01:15:39.848Z,100.00
2023-04-05T01:18:09.845Z,100.00
2023-04-05T01:20:46.442Z,100.00
2023-04-05T01:23:44.243Z,100.00
2023-04-05T01:26:28.626Z,100.00
2023-04-05T01:29:33.515Z,100.00
2023-04-05T01:32:26.187Z,100.00
2023-04-05T01:35:10.030Z,100.00
2023-04-05T01:37:39.119Z,100.00
2023-04-05T01:40:08.902Z,100.00
2023-04-05T01:42:36.391Z,100.00
2023-04-05T01:45:03.768Z,100.00
2023-04-05T01:47:32.818Z,100.00
2023-04-05T01:50:00.132Z,100.00
2023-04-05T01:52:27.488Z,100.00
2023-04-05T01:54:54.740Z,100.00
2023-04-05T01:57:21.969Z,100.00
2023-04-05T01:59:49.430Z,100.00
2023-04-05T02:02:18.082Z,100.00
2023-04-05T02:04:45.848Z,100.00
2023-04-05T02:07:13.132Z,100.00
2023-04-05T02:09:41.978Z,100.00
2023-04-05T02:12:09.440Z,100.00
2023-04-05T02:14:38.626Z,100.00
2023-04-05T02:17:06.033Z,100.00
2023-04-05T02:19:41.251Z,100.00
2023-04-05T02:22:09.637Z,100.00
2023-04-05T02:24:37.319Z,100.00
2023-04-05T02:27:04.796Z,100.00
2023-04-05T02:29:32.302Z,100.00
2023-04-05T02:31:59.675Z,100.00
2023-04-05T02:34:27.582Z,100.00
2023-04-05T02:36:54.803Z,100.00
2023-04-05T02:39:22.129Z,100.00
2023-04-05T02:41:49.212Z,100.00
2023-04-05T02:44:17.414Z,100.00
2023-04-05T02:46:44.565Z,100.00
2023-04-05T02:49:12.258Z,100.00
2023-04-05T02:51:39.611Z,100.00
2023-04-05T02:54:09.955Z,100.00
2023-04-05T02:56:37.475Z,100.00
2023-04-05T02:59:11.235Z,100.00
2023-04-05T03:01:38.517Z,100.00
2023-04-05T03:04:06.633Z,100.00
2023-04-05T03:06:34.227Z,100.00
2023-04-05T03:09:04.864Z,100.00
2023-04-05T03:11:34.076Z,100.00
2023-04-05T03:14:01.893Z,100.00
2023-04-05T03:16:43.362Z,100.00
2023-04-05T03:19:31.390Z,100.00
2023-04-05T03:22:10.531Z,100.00
2023-04-05T03:24:38.927Z,100.00
2023-04-05T03:27:09.972Z,100.00
2023-04-05T03:29:55.684Z,100.00
2023-04-05T03:32:23.384Z,100.00
2023-04-05T03:34:58.230Z,100.00
2023-04-05T03:37:25.653Z,100.00
2023-04-05T03:40:00.880Z,100.00
2023-04-05T03:42:28.373Z,100.00
2023-04-05T03:44:56.199Z,100.00
2023-04-05T03:47:23.561Z,100.00
2023-04-05T03:49:52.666Z,100.00
2023-04-05T03:52:20.273Z,100.00
2023-04-05T03:54:48.160Z,100.00
2023-04-05T03:57:21.459Z,100.00
2023-04-05T03:59:51.223Z,100.00
2023-04-05T04:02:18.918Z,100.00
2023-04-05T04:04:47.358Z,100.00
2023-04-05T04:07:15.700Z,100.00
2023-04-05T04:09:44.494Z,100.00
2023-04-05T04:12:13.248Z,100.00
2023-04-05T04:14:49.674Z,100.00
2023-04-05T04:17:46.407Z,100.00
2023-04-05T04:20:29.105Z,100.00
2023-04-05T04:23:10.424Z,100.00
2023-04-05T04:25:56.618Z,100.00
2023-04-05T04:28:44.136Z,100.00
2023-04-05T04:31:40.983Z,100.00
2023-04-05T04:34:26.988Z,100.00
2023-04-05T04:37:23.093Z,100.00
2023-04-05T04:40:11.399Z,100.00
2023-04-05T04:42:59.207Z,100.00
2023-04-05T04:45:56.053Z,100.00
2023-04-05T04:48:54.500Z,100.00
2023-04-05T04:51:35.055Z,100.00
2023-04-05T04:54:03.057Z,100.00
2023-04-05T04:56:30.882Z,100.00
2023-04-05T04:59:00.535Z,100.00
2023-04-05T05:01:28.594Z,100.00
2023-04-05T05:03:57.275Z,100.00
2023-04-05T05:06:34.736Z,100.00
2023-04-05T05:09:02.806Z,100.00
2023-04-05T05:11:33.533Z,100.00
2023-04-05T05:14:02.070Z,100.00
2023-04-05T05:16:29.767Z,100.00
2023-04-05T05:18:57.233Z,100.00
2023-04-05T05:21:28.228Z,100.00
2023-04-05T05:24:01.133Z,100.00
2023-04-05T05:26:28.633Z,100.00
2023-04-05T05:28:56.880Z,100.00
2023-04-05T05:31:29.748Z,100.00
2023-04-05T05:33:57.579Z,100.00
2023-04-05T05:36:26.121Z,100.00
2023-04-05T05:38:54.982Z,100.00
2023-04-05T05:41:22.616Z,100.00
2023-04-05T05:43:50.028Z,100.00
2023-04-05T05:46:18.428Z,100.00
2023-04-05T05:48:47.592Z,100.00
2023-04-05T05:51:15.059Z,100.00
2023-04-05T05:53:42.476Z,100.00
2023-04-05T05:56:10.494Z,100.00
2023-04-05T05:58:39.499Z,100.00
2023-04-05T06:01:08.155Z,100.00
2023-04-05T06:03:36.036Z,100.00
2023-04-05T06:06:06.192Z,100.00
2023-04-05T06:08:33.748Z,100.00
2023-04-05T06:11:01.878Z,100.00
2023-04-05T06:13:29.263Z,100.00
2023-04-05T06:15:57.539Z,100.00
2023-04-05T06:18:24.930Z,100.00
2023-04-05T06:20:52.121Z,100.00
2023-04-05T06:23:20.057Z,100.00
2023-04-05T06:25:48.966Z,100.00
2023-04-05T06:28:17.306Z,100.00
2023-04-05T06:30:45.320Z,100.00
2023-04-05T06:33:13.182Z,100.00
2023-04-05T06:35:41.003Z,100.00
2023-04-05T06:38:09.023Z,100.00
2023-04-05T06:40:38.833Z,100.00
2023-04-05T06:43:06.913Z,100.00
2023-04-05T06:45:34.361Z,100.00
2023-04-05T06:48:03.187Z,100.00
2023-04-05T06:50:32.253Z,100.00
2023-04-05T06:53:01.034Z,100.00
2023-04-05T06:55:29.832Z,100.00
2023-04-05T06:57:57.801Z,100.00
2023-04-05T07:00:26.311Z,100.00
2023-04-05T07:02:54.845Z,100.00
2023-04-05T07:05:22.689Z,100.00
2023-04-05T07:07:50.181Z,100.00
2023-04-05T07:10:18.761Z,100.00
2023-04-05T07:12:46.414Z,100.00
2023-04-05T07:15:17.745Z,100.00
2023-04-05T07:17:46.037Z,100.00
2023-04-05T07:20:14.858Z,100.00
2023-04-05T07:22:42.446Z,100.00
2023-04-05T07:25:10.698Z,100.00
2023-04-05T07:27:39.954Z,100.00
2023-04-05T07:30:09.269Z,100.00
2023-04-05T07:32:37.007Z,100.00
2023-04-05T07:35:05.193Z,100.00
2023-04-05T07:37:33.130Z,100.00
2023-04-05T07:40:01.034Z,100.00
2023-04-05T07:42:29.412Z,100.00
2023-04-05T07:44:58.877Z,100.00
2023-04-05T07:47:26.296Z,100.00
2023-04-05T07:49:54.049Z,100.00
2023-04-05T07:52:23.167Z,100.00
2023-04-05T07:54:51.126Z,100.00
2023-04-05T07:57:20.060Z,100.00
2023-04-05T07:59:51.303Z,100.00
2023-04-05T08:02:18.614Z,100.00
2023-04-05T08:04:47.219Z,100.00
2023-04-05T08:07:14.664Z,100.00
2023-04-05T08:09:42.510Z,100.00
2023-04-05T08:12:11.968Z,100.00
2023-04-05T08:14:40.628Z,100.00
2023-04-05T08:17:07.893Z,100.00
2023-04-05T08:19:35.326Z,100.00
2023-04-05T08:22:02.962Z,100.00
2023-04-05T08:24:30.776Z,100.00
2023-04-05T08:26:58.707Z,100.00
2023-04-05T08:29:26.690Z,100.00
2023-04-05T08:31:58.085Z,100.00
2023-04-05T08:34:25.795Z,100.00
2023-04-05T08:36:53.109Z,100.00
2023-04-05T08:39:20.720Z,100.00
2023-04-05T08:41:59.790Z,100.00
2023-04-05T08:44:31.775Z,100.00
2023-04-05T08:47:00.723Z,100.00
2023-04-05T08:49:28.865Z,100.00
2023-04-05T08:51:57.198Z,100.00
2023-04-05T08:54:24.687Z,100.00
2023-04-05T08:56:55.088Z,100.00
2023-04-05T08:59:23.448Z,100.00
2023-04-05T09:01:52.968Z,100.00
2023-04-05T09:04:24.734Z,100.00
2023-04-05T09:06:54.744Z,100.00
2023-04-05T09:09:24.685Z,100.00
2023-04-05T09:11:53.318Z,100.00
2023-04-05T09:14:22.784Z,100.00
2023-04-05T09:16:51.201Z,100.00
2023-04-05T09:19:19.043Z,100.00
2023-04-05T09:22:04.917Z,100.00
2023-04-05T09:24:42.648Z,100.00
2023-04-05T09:27:15.449Z,100.00
2023-04-05T09:29:47.248Z,100.00
2023-04-05T09:32:18.573Z,100.00
2023-04-05T09:34:46.620Z,100.00
2023-04-05T09:37:24.032Z,100.00
2023-04-05T09:40:04.641Z,100.00
2023-04-05T09:42:46.812Z,100.00
2023-04-05T09:45:16.476Z,99.04
2023-04-05T09:48:04.918Z,97.35
2023-04-05T09:50:33.003Z,95.68
2023-04-05T09:53:18.818Z,93.83
2023-04-05T09:55:51.140Z,93.29
2023-04-05T09:58:24.603Z,93.43
2023-04-05T10:01:06.221Z,92.36
2023-04-05T10:03:53.425Z,92.06
2023-04-05T10:06:22.998Z,90.09
2023-04-05T10:08:50.961Z,89.13
2023-04-05T10:11:21.896Z,89.98
2023-04-05T10:13:51.584Z,89.92
2023-04-05T10:16:24.040Z,89.51
2023-04-05T10:18:53.307Z,90.60
2023-04-05T10:21:24.098Z,91.07
2023-04-05T10:24:20.240Z,92.96
2023-04-05T10:27:16.993Z,94.34
2023-04-05T10:30:13.387Z,95.97
2023-04-05T10:33:12.710Z,96.83
2023-04-05T10:36:06.291Z,96.81
2023-04-05T10:38:44.672Z,97.33
2023-04-05T10:41:17.013Z,98.20
2023-04-05T10:43:46.555Z,98.08
2023-04-05T10:46:24.767Z,98.66
2023-04-05T10:49:10.398Z,98.06
2023-04-05T10:51:39.345Z,98.71
2023-04-05T10:54:14.489Z,97.86
2023-04-05T10:56:42.445Z,97.98
2023-04-05T10:59:12.555Z,98.37
2023-04-05T11:01:43.424Z,98.41
2023-04-05T11:04:15.849Z,99.03
2023-04-05T11:06:48.303Z,98.94
2023-04-05T11:09:23.946Z,98.42
2023-04-05T11:11:55.391Z,97.89
2023-04-05T11:14:28.864Z,97.73
2023-04-05T11:16:57.183Z,97.48
2023-04-05T11:19:44.856Z,96.19
2023-04-05T11:22:19.382Z,96.34
2023-04-05T11:24:57.708Z,95.89
2023-04-05T11:27:30.697Z,94.72
2023-04-05T11:30:00.354Z,94.41
2023-04-05T11:32:42.146Z,94.49
2023-04-05T11:35:26.881Z,93.80
2023-04-05T11:37:57.279Z,93.92
2023-04-05T11:40:36.347Z,94.36
2023-04-05T11:43:10.532Z,95.47
2023-04-05T11:45:40.341Z,96.71
2023-04-05T11:48:09.038Z,97.95
2023-04-05T11:50:38.784Z,97.95
2023-04-05T11:53:18.577Z,98.96
2023-04-05T11:55:48.854Z,99.14
2023-04-05T11:58:17.780Z,99.11
2023-04-05T12:00:46.983Z,99.82
2023-04-05T12:03:16.762Z,99.36
2023-04-05T12:05:49.736Z,99.90
2023-04-05T12:08:18.816Z,100.00
2023-04-05T12:10:55.440Z,100.00
2023-04-05T12:13:30.285Z,100.00
2023-04-05T12:16:00.319Z,100.00
2023-04-05T12:18:32.293Z,100.00
2023-04-05T12:21:05.733Z,100.00
2023-04-05T12:23:38.728Z,100.00
2023-04-05T12:26:08.951Z,100.00
2023-04-05T12:28:56.748Z,100.00
2023-04-05T12:31:40.414Z,99.53
2023-04-05T12:34:09.367Z,99.25
2023-04-05T12:36:37.997Z,98.65
2023-04-05T12:39:10.732Z,98.32
2023-04-05T12:41:42.341Z,98.90
2023-04-05T12:44:16.142Z,98.45
2023-04-05T12:46:48.098Z,98.37
2023-04-05T12:49:19.259Z,98.43
2023-04-05T12:51:48.237Z,98.25
2023-04-05T12:54:24.700Z,98.36
2023-04-05T12:56:56.564Z,97.73
2023-04-05T12:59:24.878Z,97.97
2023-04-05T13:02:16.850Z,98.89
2023-04-05T13:04:44.886Z,99.44
2023-04-05T13:07:12.127Z,100.00
2023-04-05T13:09:40.306Z,100.00
2023-04-05T13:12:08.179Z,100.00
2023-04-05T13:14:35.914Z,100.00
2023-04-05T13:17:03.737Z,100.00
2023-04-05T13:19:31.218Z,100.00
2023-04-05T13:21:58.579Z,100.00
2023-04-05T13:24:26.334Z,100.00
2023-04-05T13:26:54.632Z,100.00
2023-04-05T13:29:22.991Z,100.00
2023-04-05T13:31:51.161Z,100.00
2023-04-05T13:34:19.607Z,100.00
2023-04-05T13:36:49.904Z,100.00
2023-04-05T13:39:17.777Z,100.00
2023-04-05T13:41:45.812Z,100.00
2023-04-05T13:44:13.750Z,100.00
2023-04-05T13:46:41.763Z,100.00
2023-04-05T13:49:09.068Z,100.00
2023-04-05T13:51:41.965Z,100.00
2023-04-05T13:54:12.048Z,100.00
2023-04-05T13:56:39.922Z,100.00
2023-04-05T13:59:09.395Z,100.00
2023-04-05T14:01:38.522Z,100.00
2023-04-05T14:04:07.185Z,100.00
2023-04-05T14:06:35.539Z,100.00
2023-04-05T14:09:05.959Z,100.00
2023-04-05T14:11:33.898Z,100.00
2023-04-05T14:14:01.789Z,100.00
2023-04-05T14:16:29.727Z,100.00
2023-04-05T14:18:58.692Z,100.00
2023-04-05T14:21:27.937Z,100.00
2023-04-05T14:23:58.644Z,100.00
2023-04-05T14:26:29.227Z,100.00
2023-04-05T14:28:58.434Z,100.00
2023-04-05T14:31:26.385Z,100.00
2023-04-05T14:33:54.033Z,100.00
2023-04-05T14:36:22.370Z,100.00
2023-04-05T14:38:51.273Z,100.00
2023-04-05T14:41:19.797Z,100.00
2023-04-05T14:43:49.277Z,100.00
2023-04-05T14:46:17.959Z,100.00
2023-04-05T14:48:46.537Z,100.00
2023-04-05T14:51:14.301Z,100.00
2023-04-05T14:53:44.650Z,100.00
2023-04-05T14:56:14.699Z,100.00
2023-04-05T14:58:44.413Z,100.00
2023-04-05T15:01:14.501Z,100.00
2023-04-05T15:03:43.618Z,100.00
2023-04-05T15:06:11.166Z,100.00
2023-04-05T15:08:38.388Z,100.00
2023-04-05T15:11:06.220Z,100.00
2023-04-05T15:13:34.818Z,100.00
2023-04-05T15:16:04.256Z,100.00
2023-04-05T15:18:32.391Z,100.00
2023-04-05T15:21:03.621Z,100.00
2023-04-05T15:23:31.766Z,100.00
2023-04-05T15:26:00.034Z,100.00
2023-04-05T15:28:27.866Z,100.00
2023-04-05T15:30:57.946Z,100.00
2023-04-05T15:33:25.760Z,100.00
2023-04-05T15:35:53.751Z,100.00
2023-04-05T15:38:22.017Z,100.00
2023-04-05T15:40:52.600Z,100.00
2023-04-05T15:43:22.062Z,100.00
2023-04-05T15:45:49.869Z,100.00
2023-04-05T15:48:17.651Z,100.00
2023-04-05T15:50:45.762Z,100.00
2023-04-05T15:53:13.712Z,100.00
2023-04-05T15:55:42.067Z,100.00
2023-04-05T15:58:10.914Z,100.00
2023-04-05T16:00:39.520Z,100.00
2023-04-05T16:03:07.731Z,100.00
2023-04-05T16:05:36.466Z,100.00
2023-04-05T16:08:05.088Z,100.00
2023-04-05T16:10:33.400Z,100.00
2023-04-05T16:13:01.577Z,100.00
2023-04-05T16:15:29.620Z,100.00
2023-04-05T16:18:01.439Z,100.00
2023-04-05T16:20:31.291Z,100.00
2023-04-05T16:23:03.104Z,100.00
2023-04-05T16:25:31.481Z,100.00
2023-04-05T16:28:00.001Z,100.00
2023-04-05T16:30:27.587Z,100.00
2023-04-05T16:32:55.615Z,100.00
2023-04-05T16:35:23.594Z,100.00
2023-04-05T16:37:51.671Z,100.00
2023-04-05T16:40:19.877Z,100.00
2023-04-05T16:42:47.380Z,100.00
2023-04-05T16:45:14.593Z,100.00
2023-04-05T16:47:42.738Z,100.00
2023-04-05T16:50:11.028Z,100.00
2023-04-05T16:52:38.478Z,100.00
2023-04-05T16:55:06.872Z,100.00
2023-04-05T16:57:34.407Z,100.00
2023-04-05T17:00:01.960Z,100.00
2023-04-05T17:02:29.194Z,100.00
2023-04-05T17:04:56.465Z,100.00
2023-04-05T17:07:23.791Z,100.00
2023-04-05T17:09:51.314Z,100.00
2023-04-05T17:12:18.789Z,100.00
2023-04-05T17:14:46.265Z,100.00
2023-04-05T17:17:13.679Z,100.00
2023-04-05T17:19:41.371Z,100.00
2023-04-05T17:22:08.570Z,100.00
2023-04-05T17:24:36.992Z,100.00
2023-04-05T17:27:05.058Z,100.00
2023-04-05T17:29:32.380Z,100.00
2023-04-05T17:31:59.637Z,100.00
2023-04-05T17:34:27.367Z,100.00
2023-04-05T17:36:54.369Z,100.00
2023-04-05T17:39:22.021Z,100.00
2023-04-05T17:41:51.268Z,100.00
2023-04-05T17:44:20.375Z,100.00
2023-04-05T17:47:01.291Z,100.00
2023-04-05T17:49:36.817Z,100.00
2023-04-05T17:52:05.205Z,100.00
2023-04-05T17:54:37.246Z,100.00
2023-04-05T17:57:07.335Z,100.00
2023-04-05T17:59:35.949Z,100.00
2023-04-05T18:02:03.096Z,100.00
2023-04-05T18:04:30.499Z,100.00
2023-04-05T18:07:00.139Z,100.00
2023-04-05T18:09:28.332Z,100.00
2023-04-05T18:11:56.279Z,100.00
2023-04-05T18:14:23.434Z,100.00
2023-04-05T18:16:50.852Z,100.00
2023-04-05T18:19:18.296Z,100.00
2023-04-05T18:21:46.659Z,100.00
2023-04-05T18:24:14.503Z,100.00
2023-04-05T18:26:42.064Z,100.00
2023-04-05T18:29:09.590Z,100.00
2023-04-05T18:31:37.441Z,100.00
2023-04-05T18:34:07.869Z,100.00
2023-04-05T18:36:36.528Z,100.00
2023-04-05T18:39:04.129Z,100.00
2023-04-05T18:41:32.246Z,100.00
2023-04-05T18:43:59.609Z,100.00
2023-04-05T18:46:27.052Z,100.00
2023-04-05T18:48:55.131Z,100.00
2023-04-05T18:51:23.961Z,100.00
2023-04-05T18:53:51.587Z,100.00
2023-04-05T18:56:19.080Z,100.00
2023-04-05T18:58:46.759Z,100.00
2023-04-05T19:01:16.648Z,100.00
2023-04-05T19:03:45.251Z,100.00
2023-04-05T19:06:13.431Z,100.00
2023-04-05T19:08:41.647Z,100.00
2023-04-05T19:11:13.097Z,100.00
2023-04-05T19:13:43.307Z,100.00
2023-04-05T19:16:10.826Z,100.00
2023-04-05T19:18:39.131Z,100.00
2023-04-05T19:21:08.740Z,100.00
2023-04-05T19:23:36.986Z,100.00
2023-04-05T19:26:04.537Z,100.00
2023-04-05T19:28:32.566Z,100.00
2023-04-05T19:30:59.885Z,100.00
2023-04-05T19:33:30.055Z,100.00
2023-04-05T19:35:58.654Z,100.00
2023-04-05T19:38:26.339Z,100.00
2023-04-05T19:40:53.908Z,100.00
2023-04-05T19:43:23.740Z,100.00
2023-04-05T19:45:59.736Z,100.00
2023-04-05T19:48:37.333Z,100.00
2023-04-05T19:51:07.247Z,100.00
2023-04-05T19:53:50.649Z,100.00
2023-04-05T19:56:28.723Z,100.00
2023-04-05T19:59:01.510Z,100.00
2023-04-05T20:01:39.262Z,100.00
2023-04-05T20:04:14.278Z,100.00
2023-04-05T20:06:44.404Z,100.00
2023-04-05T20:09:15.362Z,100.00
2023-04-05T20:11:47.176Z,100.00
2023-04-05T20:14:15.024Z,100.00
2023-04-05T20:16:43.155Z,100.00
2023-04-05T20:19:11.726Z,100.00
2023-04-05T20:21:39.586Z,100.00
2023-04-05T20:24:12.630Z,100.00
2023-04-05T20:26:40.128Z,100.00
2023-04-05T20:29:08.641Z,100.00
2023-04-05T20:31:39.815Z,100.00
2023-04-05T20:34:10.198Z,100.00
2023-04-05T20:36:47.802Z,100.00
2023-04-05T20:39:15.716Z,100.00
2023-04-05T20:41:43.448Z,100.00
2023-04-05T20:44:10.796Z,100.00
2023-04-05T20:46:41.706Z,100.00
2023-04-05T20:49:09.511Z,100.00
2023-04-05T20:51:36.864Z,100.00
2023-04-05T20:54:04.569Z,100.00
2023-04-05T20:56:31.577Z,100.00
2023-04-05T20:58:58.948Z,100.00
2023-04-05T21:01:27.327Z,100.00
2023-04-05T21:03:54.616Z,100.00
2023-04-05T21:06:21.944Z,100.00
2023-04-05T21:08:49.640Z,100.00
2023-04-05T21:11:16.864Z,100.00
2023-04-05T21:13:44.101Z,100.00
2023-04-05T21:16:11.706Z,100.00
2023-04-05T21:18:39.350Z,100.00
2023-04-05T21:21:07.417Z,100.00
2023-04-05T21:23:35.572Z,100.00
2023-04-05T21:26:04.898Z,100.00
2023-04-05T21:28:32.937Z,100.00
2023-04-05T21:31:00.565Z,100.00
2023-04-05T21:33:27.939Z,100.00
2023-04-05T21:35:55.457Z,100.00
2023-04-05T21:38:22.730Z,100.00
2023-04-05T21:40:51.040Z,100.00
2023-04-05T21:43:18.618Z,100.00
2023-04-05T21:45:46.838Z,100.00
2023-04-05T21:48:13.869Z,100.00
2023-04-05T21:50:41.547Z,100.00
2023-04-05T21:53:10.690Z,100.00
2023-04-05T21:55:38.239Z,100.00
2023-04-05T21:58:05.614Z,100.00
2023-04-05T22:00:33.039Z,100.00
2023-04-05T22:03:00.693Z,100.00
2023-04-05T22:05:37.459Z,100.00
2023-04-05T22:08:10.261Z,100.00
2023-04-05T22:10:38.610Z,100.00
2023-04-05T22:13:06.131Z,100.00
2023-04-05T22:15:33.581Z,100.00
2023-04-05T22:18:02.419Z,100.00
2023-04-05T22:20:30.092Z,100.00
2023-04-05T22:22:57.342Z,100.00
2023-04-05T22:25:26.463Z,100.00
2023-04-05T22:27:59.748Z,100.00
2023-04-05T22:30:37.204Z,100.00
2023-04-05T22:33:10.690Z,100.00
2023-04-05T22:35:38.584Z,100.00
2023-04-05T22:38:06.165Z,100.00
2023-04-05T22:40:33.420Z,100.00
2023-04-05T22:43:00.861Z,100.00
2023-04-05T22:45:29.073Z,100.00
2023-04-05T22:47:57.733Z,100.00
2023-04-05T22:50:25.063Z,100.00
2023-04-05T22:52:52.506Z,100.00
2023-04-05T22:55:20.027Z,100.00
2023-04-05T22:57:47.420Z,100.00
2023-04-05T23:00:15.356Z,100.00
2023-04-05T23:02:43.831Z,100.00
2023-04-05T23:05:13.552Z,100.00
2023-04-05T23:07:41.220Z,100.00
2023-04-05T23:10:08.708Z,100.00
2023-04-05T23:12:36.397Z,100.00
2023-04-05T23:15:03.878Z,100.00
2023-04-05T23:17:32.623Z,100.00
2023-04-05T23:20:00.170Z,100.00
2023-04-05T23:22:30.903Z,100.00
2023-04-05T23:25:02.585Z,100.00
2023-04-05T23:27:30.047Z,100.00
2023-04-05T23:29:57.741Z,100.00
2023-04-05T23:32:25.710Z,100.00
2023-04-05T23:34:53.111Z,100.00
2023-04-05T23:37:20.401Z,100.00
2023-04-05T23:39:47.585Z,100.00
2023-04-05T23:42:16.397Z,100.00
2023-04-05T23:44:43.422Z,100.00
2023-04-05T23:47:11.096Z,100.00
2023-04-05T23:49:38.303Z,100.00
2023-04-05T23:52:05.948Z,100.00
2023-04-05T23:54:33.113Z,100.00
2023-04-05T23:57:00.200Z,100.00
2023-04-05T23:59:27.309Z,100.00
